createdAt,value
2019-05-09T00:00:36.873Z,12.13
2019-05-09T00:02:41.115Z,11.83
2019-05-09T00:04:45.022Z,11.95
2019-05-09T00:06:50.022Z,11.30
2019-05-09T00:08:54.347Z,11.55
2019-05-09T00:11:00.779Z,11.10
2019-05-09T00:13:06.176Z,11.08
2019-05-09T00:15:10.386Z,11.00
2019-05-09T00:17:14.317Z,11.18
2019-05-09T00:19:18.809Z,11.35
2019-05-09T00:21:25.321Z,11.35
2019-05-09T00:23:29.196Z,11.22
2019-05-09T00:25:34.015Z,12.20
2019-05-09T00:27:37.992Z,11.60
2019-05-09T00:29:43.841Z,11.05
2019-05-09T00:32:03.561Z,11.12
2019-05-09T00:34:10.924Z,11.00
2019-05-09T00:36:15.032Z,10.85
2019-05-09T00:38:24.048Z,11.05
2019-05-09T00:40:28.562Z,11.68
2019-05-09T00:42:33.398Z,10.28
2019-05-09T00:44:38.984Z,10.48
2019-05-09T00:46:45.440Z,10.45
2019-05-09T00:48:53.722Z,11.20
2019-05-09T00:50:57.585Z,11.60
2019-05-09T00:53:03.131Z,10.60
2019-05-09T00:55:07.745Z,11.38
2019-05-09T00:57:13.766Z,11.33
2019-05-09T00:59:19.100Z,10.85
2019-05-09T01:01:30.429Z,11.30
2019-05-09T01:03:34.312Z,10.93
2019-05-09T01:05:38.154Z,10.43
2019-05-09T01:07:43.103Z,11.70
2019-05-09T01:09:47.130Z,10.53
2019-05-09T01:11:53.252Z,10.40
2019-05-09T01:13:59.018Z,10.98
2019-05-09T01:16:04.576Z,11.33
2019-05-09T01:18:08.616Z,11.38
2019-05-09T01:20:14.714Z,11.10
2019-05-09T01:22:18.432Z,11.05
2019-05-09T01:24:23.300Z,10.70
2019-05-09T01:26:27.403Z,10.60
2019-05-09T01:28:33.667Z,11.75
2019-05-09T01:30:37.060Z,11.00
2019-05-09T01:32:58.990Z,11.03
2019-05-09T01:35:03.812Z,10.93
2019-05-09T01:37:09.462Z,12.00
2019-05-09T01:39:13.826Z,11.20
2019-05-09T01:41:27.888Z,12.13
2019-05-09T01:43:24.430Z,11.60
2019-05-09T01:45:28.505Z,11.90
2019-05-09T01:47:34.170Z,11.30
2019-05-09T01:49:38.155Z,11.80
2019-05-09T01:51:44.336Z,11.43
2019-05-09T01:53:49.121Z,11.73
2019-05-09T01:55:59.483Z,11.85
2019-05-09T01:58:03.433Z,11.40
2019-05-09T02:00:08.673Z,11.68
2019-05-09T02:02:14.180Z,11.95
2019-05-09T02:04:18.473Z,12.07
2019-05-09T02:06:24.342Z,11.25
2019-05-09T02:08:27.961Z,11.48
2019-05-09T02:10:31.832Z,11.55
2019-05-09T02:12:35.765Z,10.98
2019-05-09T02:14:43.519Z,11.45
2019-05-09T02:16:57.323Z,11.68
2019-05-09T02:19:17.980Z,11.88
2019-05-09T02:21:23.841Z,11.22
2019-05-09T02:23:27.348Z,11.83
2019-05-09T02:25:32.926Z,11.83
2019-05-09T02:27:36.743Z,11.97
2019-05-09T02:29:41.014Z,12.07
2019-05-09T02:31:44.934Z,12.37
2019-05-09T02:33:48.780Z,12.25
2019-05-09T02:35:57.440Z,13.00
2019-05-09T02:37:58.816Z,12.37
2019-05-09T02:40:02.735Z,12.55
2019-05-09T02:42:12.760Z,12.75
2019-05-09T02:44:12.512Z,12.20
2019-05-09T02:46:19.559Z,12.90
2019-05-09T02:48:23.395Z,12.55
2019-05-09T02:50:28.549Z,13.25
2019-05-09T02:52:32.742Z,13.53
2019-05-09T02:54:39.282Z,12.63
2019-05-09T02:56:42.138Z,13.60
2019-05-09T02:58:50.724Z,13.58
2019-05-09T03:00:59.444Z,13.48
2019-05-09T03:03:03.277Z,13.98
2019-05-09T03:05:08.957Z,13.43
2019-05-09T03:07:13.042Z,14.00
2019-05-09T03:09:19.041Z,14.03
2019-05-09T03:11:22.348Z,13.70
2019-05-09T03:13:28.856Z,13.08
2019-05-09T03:15:32.747Z,14.70
2019-05-09T03:17:38.583Z,14.58
2019-05-09T03:19:42.242Z,14.30
2019-05-09T03:21:49.322Z,14.15
2019-05-09T03:23:53.435Z,14.55
2019-05-09T03:25:58.769Z,13.80
2019-05-09T03:28:10.341Z,13.68
2019-05-09T03:30:20.401Z,14.30
2019-05-09T03:32:21.776Z,14.65
2019-05-09T03:34:29.774Z,14.47
2019-05-09T03:36:31.403Z,14.93
2019-05-09T03:38:37.615Z,14.07
2019-05-09T03:40:40.962Z,14.25
2019-05-09T03:42:44.978Z,15.50
2019-05-09T03:44:49.177Z,15.80
2019-05-09T03:47:00.597Z,15.95
2019-05-09T03:49:08.854Z,15.03
2019-05-09T03:51:12.735Z,15.15
2019-05-09T03:53:18.469Z,15.80
2019-05-09T03:55:23.859Z,16.70
2019-05-09T03:57:29.391Z,15.28
2019-05-09T03:59:33.305Z,15.53
2019-05-09T04:01:38.199Z,15.55
2019-05-09T04:03:42.442Z,17.37
2019-05-09T04:05:58.500Z,15.80
2019-05-09T04:07:51.909Z,15.90
2019-05-09T04:09:58.380Z,16.10
2019-05-09T04:12:01.509Z,16.48
2019-05-09T04:14:10.061Z,16.15
2019-05-09T04:16:14.173Z,15.65
2019-05-09T04:18:18.063Z,17.57
2019-05-09T04:20:22.189Z,16.02
2019-05-09T04:22:27.149Z,15.98
2019-05-09T04:24:31.539Z,16.97
2019-05-09T04:26:52.133Z,16.00
2019-05-09T04:28:57.771Z,16.45
2019-05-09T04:31:01.670Z,17.42
2019-05-09T04:33:07.314Z,16.27
2019-05-09T04:35:12.659Z,17.23
2019-05-09T04:37:18.003Z,16.97
2019-05-09T04:39:23.879Z,18.50
2019-05-09T04:41:28.615Z,18.37
2019-05-09T04:43:36.697Z,17.50
2019-05-09T04:45:44.326Z,17.40
2019-05-09T04:47:48.208Z,18.48
2019-05-09T04:49:52.190Z,18.60
2019-05-09T04:51:58.266Z,17.40
2019-05-09T04:54:01.906Z,18.57
2019-05-09T04:56:17.547Z,18.87
2019-05-09T04:58:21.990Z,18.70
2019-05-09T05:00:33.211Z,17.98
2019-05-09T05:02:38.699Z,19.67
2019-05-09T05:04:42.653Z,18.77
2019-05-09T05:06:47.814Z,19.98
2019-05-09T05:08:54.560Z,19.65
2019-05-09T05:10:58.501Z,21.70
2019-05-09T05:13:02.357Z,21.55
2019-05-09T05:15:09.303Z,21.00
2019-05-09T05:17:13.215Z,18.98
2019-05-09T05:19:17.650Z,21.65
2019-05-09T05:21:21.759Z,19.87
2019-05-09T05:23:43.648Z,20.57
2019-05-09T05:25:47.649Z,22.25
2019-05-09T05:27:52.985Z,18.62
2019-05-09T05:29:58.319Z,21.40
2019-05-09T05:32:04.044Z,20.80
2019-05-09T05:34:12.519Z,21.95
2019-05-09T05:36:18.169Z,23.77
2019-05-09T05:38:24.775Z,23.22
2019-05-09T05:40:33.051Z,21.10
2019-05-09T05:42:34.215Z,23.85
2019-05-09T05:44:38.687Z,21.50
2019-05-09T05:46:47.478Z,20.88
2019-05-09T05:48:51.316Z,23.30
2019-05-09T05:50:55.192Z,23.70
2019-05-09T05:53:00.737Z,23.18
2019-05-09T05:55:10.157Z,22.87
2019-05-09T05:57:14.108Z,22.67
2019-05-09T05:59:18.512Z,19.17
2019-05-09T06:01:24.300Z,19.70
2019-05-09T06:03:31.050Z,20.02
2019-05-09T06:05:34.933Z,22.98
2019-05-09T06:07:38.837Z,22.20
2019-05-09T06:09:42.745Z,20.92
2019-05-09T06:11:48.471Z,23.42
2019-05-09T06:13:56.447Z,26.05
2019-05-09T06:15:58.619Z,23.85
2019-05-09T06:18:02.739Z,23.45
2019-05-09T06:20:08.994Z,24.52
2019-05-09T06:22:13.035Z,22.40
2019-05-09T06:24:17.758Z,20.77
2019-05-09T06:26:21.951Z,22.02
2019-05-09T06:28:27.436Z,21.15
2019-05-09T06:30:33.331Z,20.68
2019-05-09T06:32:38.506Z,21.40
2019-05-09T06:34:42.556Z,24.20
2019-05-09T06:36:48.933Z,25.37
2019-05-09T06:38:52.463Z,23.42
2019-05-09T06:40:58.161Z,23.40
2019-05-09T06:43:03.788Z,26.55
2019-05-09T06:45:24.559Z,26.68
2019-05-09T06:47:30.028Z,28.23
2019-05-09T06:49:37.535Z,24.15
2019-05-09T06:51:44.096Z,25.52
2019-05-09T06:53:48.815Z,23.30
2019-05-09T06:55:52.884Z,23.73
2019-05-09T06:57:58.292Z,26.48
2019-05-09T07:00:03.463Z,25.55
2019-05-09T07:02:09.116Z,26.77
2019-05-09T07:04:27.647Z,26.77
2019-05-09T07:06:39.230Z,24.37
2019-05-09T07:08:44.709Z,26.17
2019-05-09T07:10:50.174Z,25.70
2019-05-09T07:12:54.114Z,28.52
2019-05-09T07:14:58.696Z,28.12
2019-05-09T07:17:02.646Z,24.30
2019-05-09T07:19:07.981Z,27.30
2019-05-09T07:21:12.135Z,25.80
2019-05-09T07:23:17.741Z,24.40
2019-05-09T07:25:27.774Z,29.40
2019-05-09T07:27:33.477Z,28.85
2019-05-09T07:29:37.631Z,25.55
2019-05-09T07:31:43.073Z,30.68
2019-05-09T07:33:54.303Z,30.30
2019-05-09T07:36:01.064Z,27.05
2019-05-09T07:38:08.553Z,28.67
2019-05-09T07:40:12.880Z,27.67
2019-05-09T07:42:18.032Z,26.37
2019-05-09T07:44:22.118Z,28.83
2019-05-09T07:46:53.055Z,29.55
2019-05-09T07:48:57.923Z,28.23
2019-05-09T07:51:04.902Z,25.68
2019-05-09T07:53:08.993Z,28.07
2019-05-09T07:55:13.205Z,28.40
2019-05-09T07:57:18.177Z,30.57
2019-05-09T07:59:22.307Z,28.02
2019-05-09T08:01:28.053Z,29.57
2019-05-09T08:03:33.299Z,27.17
2019-05-09T08:05:38.551Z,32.25
2019-05-09T08:07:42.595Z,29.57
2019-05-09T08:09:47.629Z,31.35
2019-05-09T08:11:51.687Z,31.80
2019-05-09T08:13:57.543Z,30.82
2019-05-09T08:16:01.059Z,32.70
2019-05-09T08:18:04.939Z,30.90
2019-05-09T08:20:08.784Z,35.60
2019-05-09T08:22:12.716Z,30.32
2019-05-09T08:24:18.308Z,31.75
2019-05-09T08:26:22.171Z,30.92
2019-05-09T08:28:28.130Z,29.50
2019-05-09T08:30:35.875Z,30.72
2019-05-09T08:32:37.705Z,31.57
2019-05-09T08:34:41.949Z,26.50
2019-05-09T08:36:47.763Z,33.98
2019-05-09T08:38:51.519Z,34.83
2019-05-09T08:41:09.392Z,28.20
2019-05-09T08:43:13.733Z,29.72
2019-05-09T08:45:27.699Z,28.10
2019-05-09T08:47:23.218Z,30.75
2019-05-09T08:49:28.726Z,31.07
2019-05-09T08:51:38.858Z,31.52
2019-05-09T08:53:39.811Z,32.67
2019-05-09T08:55:43.672Z,28.55
2019-05-09T08:57:48.138Z,29.45
2019-05-09T08:59:52.241Z,29.25
2019-05-09T09:02:12.355Z,33.15
2019-05-09T09:04:01.756Z,35.52
2019-05-09T09:06:08.064Z,28.30
2019-05-09T09:08:11.243Z,33.55
2019-05-09T09:10:15.316Z,34.85
2019-05-09T09:12:30.475Z,27.27
2019-05-09T09:14:24.816Z,36.58
2019-05-09T09:16:28.749Z,29.02
2019-05-09T09:18:32.880Z,31.45
2019-05-09T09:20:38.048Z,33.15
2019-05-09T09:22:42.168Z,29.23
2019-05-09T09:24:47.972Z,31.27
2019-05-09T09:26:51.593Z,29.75
2019-05-09T09:28:57.573Z,28.92
2019-05-09T09:31:00.983Z,32.80
2019-05-09T09:33:05.046Z,32.15
2019-05-09T09:35:10.363Z,28.60
2019-05-09T09:37:14.226Z,29.67
2019-05-09T09:39:18.575Z,30.55
2019-05-09T09:41:22.537Z,28.87
2019-05-09T09:43:27.985Z,27.98
2019-05-09T09:45:32.130Z,29.40
2019-05-09T09:47:39.660Z,29.15
2019-05-09T09:49:41.493Z,29.15
2019-05-09T09:51:45.367Z,31.62
2019-05-09T09:53:49.258Z,30.05
2019-05-09T09:55:53.208Z,27.17
2019-05-09T09:57:58.009Z,28.20
2019-05-09T10:00:18.949Z,33.80
2019-05-09T10:02:37.780Z,30.92
2019-05-09T10:04:42.113Z,25.77
2019-05-09T10:06:48.247Z,32.05
2019-05-09T10:08:51.861Z,29.95
2019-05-09T10:10:58.695Z,28.38
2019-05-09T10:13:03.889Z,28.52
2019-05-09T10:15:11.119Z,31.75
2019-05-09T10:17:34.930Z,30.57
2019-05-09T10:19:40.471Z,29.87
2019-05-09T10:21:49.046Z,26.87
2019-05-09T10:23:52.941Z,26.62
2019-05-09T10:25:58.177Z,24.50
2019-05-09T10:28:02.338Z,26.42
2019-05-09T10:30:09.112Z,26.93
2019-05-09T10:32:14.758Z,29.67
2019-05-09T10:34:18.808Z,26.73
2019-05-09T10:36:22.876Z,30.23
2019-05-09T10:38:28.013Z,26.15
2019-05-09T10:40:35.193Z,31.15
2019-05-09T10:42:40.844Z,29.90
2019-05-09T10:44:48.325Z,30.48
2019-05-09T10:47:02.504Z,31.48
2019-05-09T10:49:08.321Z,27.98
2019-05-09T10:51:12.677Z,30.52
2019-05-09T10:53:18.008Z,29.65
2019-05-09T10:55:22.132Z,28.05
2019-05-09T10:57:30.224Z,29.92
2019-05-09T10:59:31.518Z,29.82
2019-05-09T11:01:37.826Z,27.93
2019-05-09T11:03:40.959Z,27.30
2019-05-09T11:05:44.832Z,28.47
2019-05-09T11:07:49.522Z,28.95
2019-05-09T11:09:53.621Z,27.00
2019-05-09T11:12:00.388Z,22.45
2019-05-09T11:14:03.195Z,24.18
2019-05-09T11:16:07.676Z,25.02
2019-05-09T11:18:15.567Z,26.93
2019-05-09T11:20:19.636Z,23.60
2019-05-09T11:22:23.733Z,22.70
2019-05-09T11:24:41.792Z,24.00
2019-05-09T11:26:33.654Z,21.57
2019-05-09T11:28:37.499Z,19.50
2019-05-09T11:30:43.075Z,17.10
2019-05-09T11:32:48.097Z,17.20
2019-05-09T11:34:57.566Z,18.85
2019-05-09T11:37:01.213Z,19.07
2019-05-09T11:39:10.713Z,19.40
2019-05-09T11:41:13.191Z,18.92
2019-05-09T11:43:18.124Z,17.50
2019-05-09T11:45:22.211Z,18.57
2019-05-09T11:47:33.754Z,18.70
2019-05-09T11:49:39.028Z,21.02
2019-05-09T11:51:43.182Z,17.23
2019-05-09T11:53:48.673Z,14.80
2019-05-09T11:55:53.006Z,20.23
2019-05-09T11:57:59.194Z,18.42
2019-05-09T12:00:08.244Z,17.60
2019-05-09T12:02:14.783Z,16.05
2019-05-09T12:04:18.933Z,15.60
2019-05-09T12:06:22.901Z,15.88
2019-05-09T12:08:29.339Z,15.10
2019-05-09T12:10:33.362Z,13.75
2019-05-09T12:12:39.047Z,13.78
2019-05-09T12:14:43.124Z,15.90
2019-05-09T12:16:48.035Z,15.08
2019-05-09T12:18:53.802Z,15.78
2019-05-09T12:20:57.805Z,15.05
2019-05-09T12:23:01.708Z,16.37
2019-05-09T12:25:08.145Z,13.80
2019-05-09T12:27:12.810Z,14.87
2019-05-09T12:29:19.291Z,17.32
2019-05-09T12:31:22.246Z,14.63
2019-05-09T12:33:28.229Z,14.00
2019-05-09T12:35:31.712Z,15.13
2019-05-09T12:37:37.664Z,15.53
2019-05-09T12:39:41.745Z,17.60
2019-05-09T12:41:48.465Z,16.00
2019-05-09T12:43:52.482Z,15.58
2019-05-09T12:45:59.077Z,14.55
2019-05-09T12:48:10.884Z,14.18
2019-05-09T12:50:09.118Z,13.60
2019-05-09T12:52:18.534Z,13.75
2019-05-09T12:54:22.041Z,13.75
2019-05-09T12:56:28.198Z,14.10
2019-05-09T12:58:31.572Z,13.18
2019-05-09T13:00:43.223Z,14.40
2019-05-09T13:02:47.177Z,13.00
2019-05-09T13:04:51.051Z,14.30
2019-05-09T13:06:55.033Z,12.93
2019-05-09T13:08:59.011Z,13.08
2019-05-09T13:11:02.984Z,15.93
2019-05-09T13:13:08.804Z,14.35
2019-05-09T13:15:12.574Z,13.10
2019-05-09T13:17:18.073Z,13.58
2019-05-09T13:19:24.173Z,13.40
2019-05-09T13:21:32.356Z,12.15
2019-05-09T13:23:33.981Z,11.50
2019-05-09T13:25:38.130Z,11.30
2019-05-09T13:27:42.127Z,10.18
2019-05-09T13:29:49.388Z,10.45
2019-05-09T13:31:53.272Z,21.87
2019-05-09T13:34:00.225Z,31.30
2019-05-09T13:36:04.127Z,14.70
2019-05-09T13:38:08.692Z,14.18
2019-05-09T13:40:13.016Z,9.93
2019-05-09T13:42:19.581Z,9.63
2019-05-09T13:44:22.660Z,8.28
2019-05-09T13:46:28.271Z,11.08
2019-05-09T13:48:56.289Z,27.32
2019-05-09T13:50:38.176Z,20.72
2019-05-09T13:52:42.213Z,9.73
2019-05-09T13:54:48.284Z,119.45
2019-05-09T13:56:57.507Z,11.88
2019-05-09T13:58:58.500Z,13.22
2019-05-09T14:01:02.789Z,23.07
2019-05-09T14:03:08.114Z,16.37
2019-05-09T14:05:12.415Z,101.35
2019-05-09T14:07:19.048Z,20.45
2019-05-09T14:09:24.986Z,21.95
2019-05-09T14:11:29.316Z,60.50
2019-05-09T14:13:33.500Z,32.03
2019-05-09T14:15:43.686Z,8.65
2019-05-09T14:17:50.931Z,8.23
2019-05-09T14:19:51.927Z,10.40
2019-05-09T14:21:58.493Z,13.35
2019-05-09T14:24:11.232Z,11.83
2019-05-09T14:26:09.442Z,10.90
2019-05-09T14:28:12.795Z,13.43
2019-05-09T14:30:16.753Z,24.05
2019-05-09T14:32:20.731Z,32.45
2019-05-09T14:34:26.285Z,11.80
2019-05-09T14:36:30.166Z,8.68
2019-05-09T14:38:34.184Z,7.97
2019-05-09T14:40:39.635Z,6.33
2019-05-09T14:42:43.489Z,6.95
2019-05-09T14:44:48.871Z,6.78
2019-05-09T14:46:52.759Z,7.62
2019-05-09T14:48:58.405Z,6.92
2019-05-09T14:51:02.284Z,6.85
2019-05-09T14:53:09.177Z,5.90
2019-05-09T14:55:13.172Z,5.90
2019-05-09T14:57:17.636Z,5.87
2019-05-09T14:59:21.759Z,6.85
2019-05-09T15:01:29.039Z,7.15
2019-05-09T15:03:33.287Z,7.47
2019-05-09T15:05:37.925Z,8.98
2019-05-09T15:07:42.002Z,9.33
2019-05-09T15:09:45.932Z,10.80
2019-05-09T15:11:49.867Z,8.98
2019-05-09T15:13:55.183Z,10.40
2019-05-09T15:15:59.080Z,11.20
2019-05-09T15:18:03.108Z,18.67
2019-05-09T15:20:08.830Z,14.28
2019-05-09T15:22:12.917Z,14.05
2019-05-09T15:24:19.235Z,16.93
2019-05-09T15:26:23.464Z,26.87
2019-05-09T15:28:29.130Z,18.65
2019-05-09T15:30:32.848Z,23.62
2019-05-09T15:32:37.724Z,32.15
2019-05-09T15:34:41.967Z,37.25
2019-05-09T15:36:48.197Z,35.80
2019-05-09T15:38:51.498Z,34.35
2019-05-09T15:40:58.163Z,31.02
2019-05-09T15:43:02.172Z,31.62
2019-05-09T15:45:09.783Z,29.92
2019-05-09T15:47:18.383Z,25.97
2019-05-09T15:49:22.315Z,34.33
2019-05-09T15:51:27.923Z,29.98
2019-05-09T15:53:31.700Z,24.10
2019-05-09T15:55:35.625Z,27.50
2019-05-09T15:57:39.457Z,23.35
2019-05-09T15:59:47.772Z,19.57
2019-05-09T16:01:51.306Z,18.77
2019-05-09T16:03:55.203Z,25.85
2019-05-09T16:05:59.053Z,22.52
2019-05-09T16:08:04.708Z,19.35
2019-05-09T16:10:09.044Z,22.48
2019-05-09T16:12:12.906Z,17.50
2019-05-09T16:14:18.468Z,21.80
2019-05-09T16:16:22.582Z,20.60
2019-05-09T16:18:28.651Z,18.87
2019-05-09T16:20:37.702Z,20.57
2019-05-09T16:22:39.272Z,19.90
2019-05-09T16:24:43.079Z,23.10
2019-05-09T16:26:48.750Z,28.02
2019-05-09T16:28:52.459Z,15.93
2019-05-09T16:30:58.412Z,20.77
2019-05-09T16:33:04.806Z,15.28
2019-05-09T16:35:09.004Z,23.00
2019-05-09T16:37:13.017Z,22.30
2019-05-09T16:39:17.922Z,38.92
2019-05-09T16:41:23.500Z,56.40
2019-05-09T16:43:27.442Z,36.25
2019-05-09T16:45:33.815Z,57.45
2019-05-09T16:47:37.663Z,52.75
2019-05-09T16:49:41.576Z,27.98
2019-05-09T16:51:45.455Z,23.87
2019-05-09T16:53:54.151Z,22.77
2019-05-09T16:55:58.395Z,22.87
2019-05-09T16:58:02.332Z,26.12
2019-05-09T17:00:12.920Z,23.95
2019-05-09T17:02:21.767Z,25.12
2019-05-09T17:04:23.798Z,26.48
2019-05-09T17:06:27.673Z,27.13
2019-05-09T17:08:31.662Z,28.73
2019-05-09T17:10:35.553Z,30.15
2019-05-09T17:12:39.818Z,27.37
2019-05-09T17:14:43.763Z,27.02
2019-05-09T17:16:52.859Z,28.50
2019-05-09T17:18:58.150Z,25.90
2019-05-09T17:21:24.124Z,25.88
2019-05-09T17:23:29.500Z,26.27
2019-05-09T17:25:32.928Z,27.20
2019-05-09T17:27:38.700Z,29.30
2019-05-09T17:29:43.216Z,28.40
2019-05-09T17:31:48.855Z,28.60
2019-05-09T17:33:52.566Z,30.17
2019-05-09T17:35:57.823Z,26.40
2019-05-09T17:38:01.956Z,25.80
2019-05-09T17:40:08.004Z,26.12
2019-05-09T17:42:12.133Z,28.57
2019-05-09T17:44:18.448Z,25.68
2019-05-09T17:46:24.479Z,25.00
2019-05-09T17:48:28.549Z,25.85
2019-05-09T17:50:38.107Z,26.02
2019-05-09T17:52:41.232Z,23.12
2019-05-09T17:54:45.175Z,25.08
2019-05-09T17:56:49.301Z,25.35
2019-05-09T17:58:57.897Z,25.25
2019-05-09T18:01:07.888Z,25.75
2019-05-09T18:03:11.718Z,24.20
2019-05-09T18:05:17.746Z,23.27
2019-05-09T18:07:21.388Z,25.40
2019-05-09T18:09:25.344Z,25.45
2019-05-09T18:11:29.255Z,74.12
2019-05-09T18:13:38.346Z,47.03
2019-05-09T18:15:41.498Z,44.10
2019-05-09T18:17:47.720Z,31.48
2019-05-09T18:19:50.975Z,40.65
2019-05-09T18:21:54.830Z,32.55
2019-05-09T18:23:58.980Z,32.35
2019-05-09T18:26:02.869Z,31.00
2019-05-09T18:28:07.717Z,35.83
2019-05-09T18:30:12.420Z,54.88
2019-05-09T18:32:34.331Z,35.13
2019-05-09T18:34:38.216Z,35.15
2019-05-09T18:36:42.253Z,33.10
2019-05-09T18:38:48.076Z,49.53
2019-05-09T18:40:51.729Z,36.80
2019-05-09T18:42:58.350Z,30.00
2019-05-09T18:45:01.244Z,29.55
2019-05-09T18:47:05.118Z,28.75
2019-05-09T18:49:09.018Z,25.15
2019-05-09T18:51:12.922Z,28.25
2019-05-09T18:53:16.889Z,26.45
2019-05-09T18:55:20.969Z,23.73
2019-05-09T18:57:24.978Z,21.07
2019-05-09T18:59:28.815Z,21.27
2019-05-09T19:01:35.799Z,20.02
2019-05-09T19:03:39.687Z,18.35
2019-05-09T19:05:43.664Z,18.00
2019-05-09T19:07:48.114Z,18.55
2019-05-09T19:09:52.036Z,19.48
2019-05-09T19:11:55.959Z,20.75
2019-05-09T19:14:01.928Z,21.50
2019-05-09T19:16:22.353Z,34.67
2019-05-09T19:18:46.107Z,34.05
2019-05-09T19:20:54.626Z,28.70
2019-05-09T19:22:58.498Z,32.05
2019-05-09T19:25:02.461Z,26.75
2019-05-09T19:27:06.375Z,29.10
2019-05-09T19:29:10.612Z,28.32
2019-05-09T19:31:14.580Z,31.80
2019-05-09T19:33:18.540Z,23.32
2019-05-09T19:35:22.483Z,23.42
2019-05-09T19:37:26.711Z,21.57
2019-05-09T19:39:30.557Z,21.15
2019-05-09T19:41:34.751Z,22.90
2019-05-09T19:43:38.671Z,23.62
2019-05-09T19:45:42.545Z,23.75
2019-05-09T19:47:46.420Z,21.80
2019-05-09T19:49:50.375Z,21.68
2019-05-09T19:51:54.252Z,22.22
2019-05-09T19:53:58.053Z,24.25
2019-05-09T19:56:01.964Z,25.68
2019-05-09T19:58:05.979Z,28.38
2019-05-09T20:00:14.240Z,28.90
2019-05-09T20:02:21.740Z,27.35
2019-05-09T20:04:29.384Z,26.85
2019-05-09T20:06:37.650Z,25.10
2019-05-09T20:08:45.789Z,26.15
2019-05-09T20:11:09.411Z,26.12
2019-05-09T20:13:22.240Z,27.17
2019-05-09T20:15:29.966Z,29.20
2019-05-09T20:17:39.742Z,26.55
2019-05-09T20:19:46.573Z,26.05
2019-05-09T20:21:53.712Z,26.60
2019-05-09T20:24:00.769Z,26.15
2019-05-09T20:26:05.511Z,27.15
2019-05-09T20:28:13.077Z,22.35
2019-05-09T20:30:17.307Z,21.40
2019-05-09T20:32:21.251Z,22.80
2019-05-09T20:34:25.120Z,22.02
2019-05-09T20:36:28.943Z,21.00
2019-05-09T20:38:33.085Z,20.72
2019-05-09T20:40:37.506Z,22.60
2019-05-09T20:42:41.528Z,21.93
2019-05-09T20:44:45.682Z,21.93
2019-05-09T20:46:49.709Z,22.30
2019-05-09T20:48:53.760Z,21.40
2019-05-09T20:50:57.879Z,21.42
2019-05-09T20:53:09.566Z,22.32
2019-05-09T20:55:07.799Z,25.15
2019-05-09T20:57:12.003Z,25.05
2019-05-09T20:59:16.182Z,26.23
2019-05-09T21:01:20.233Z,24.95
2019-05-09T21:03:24.352Z,26.60
2019-05-09T21:05:28.510Z,27.22
2019-05-09T21:07:32.899Z,27.40
2019-05-09T21:09:37.044Z,27.67
2019-05-09T21:11:41.075Z,27.62
2019-05-09T21:13:48.461Z,28.05
2019-05-09T21:15:51.330Z,32.23
2019-05-09T21:17:55.442Z,27.55
2019-05-09T21:19:59.480Z,26.40
2019-05-09T21:22:03.559Z,28.77
2019-05-09T21:24:07.584Z,30.48
2019-05-09T21:26:11.692Z,31.93
2019-05-09T21:28:15.811Z,31.35
2019-05-09T21:30:19.955Z,33.50
2019-05-09T21:32:24.000Z,28.35
2019-05-09T21:34:28.101Z,33.70
2019-05-09T21:36:31.978Z,33.25
2019-05-09T21:38:35.873Z,31.95
2019-05-09T21:40:39.842Z,30.15
2019-05-09T21:42:43.707Z,28.23
2019-05-09T21:44:47.661Z,29.80
2019-05-09T21:46:51.677Z,28.90
2019-05-09T21:48:55.531Z,32.98
2019-05-09T21:50:59.416Z,31.10
2019-05-09T21:53:03.319Z,32.93
2019-05-09T21:55:07.222Z,31.87
2019-05-09T21:57:11.104Z,33.38
2019-05-09T21:59:14.996Z,31.27
2019-05-09T22:01:19.884Z,31.10
2019-05-09T22:03:23.735Z,30.45
2019-05-09T22:05:27.697Z,28.20
2019-05-09T22:07:31.594Z,27.98
2019-05-09T22:09:38.076Z,26.55
2019-05-09T22:11:41.907Z,26.30
2019-05-09T22:13:45.797Z,27.35
2019-05-09T22:15:49.703Z,26.85
2019-05-09T22:17:53.588Z,30.95
2019-05-09T22:19:57.453Z,30.72
2019-05-09T22:22:01.385Z,30.15
2019-05-09T22:24:07.504Z,29.92
2019-05-09T22:26:11.409Z,29.05
2019-05-09T22:28:16.064Z,27.93
2019-05-09T22:30:20.524Z,29.65
2019-05-09T22:32:24.660Z,28.75
2019-05-09T22:34:29.380Z,31.75
2019-05-09T22:36:33.274Z,36.90
2019-05-09T22:38:37.242Z,38.48
2019-05-09T22:40:42.953Z,39.27
2019-05-09T22:42:46.860Z,38.70
2019-05-09T22:44:52.169Z,38.42
2019-05-09T22:46:56.087Z,36.63
2019-05-09T22:48:59.969Z,34.92
2019-05-09T22:51:04.305Z,38.63
2019-05-09T22:53:08.253Z,34.55
2019-05-09T22:55:12.581Z,35.70
2019-05-09T22:57:18.127Z,37.93
2019-05-09T22:59:23.048Z,34.38
2019-05-09T23:01:26.861Z,35.38
2019-05-09T23:03:32.450Z,35.65
2019-05-09T23:05:36.376Z,34.60
2019-05-09T23:07:40.253Z,34.75
2019-05-09T23:09:44.071Z,38.10
2019-05-09T23:11:48.627Z,37.20
2019-05-09T23:13:53.247Z,37.90
2019-05-09T23:15:57.107Z,35.30
2019-05-09T23:18:01.028Z,37.48
2019-05-09T23:20:08.620Z,36.28
2019-05-09T23:22:12.672Z,34.95
2019-05-09T23:24:27.969Z,32.17
2019-05-09T23:26:24.531Z,29.10
2019-05-09T23:28:28.711Z,30.00
2019-05-09T23:30:35.828Z,29.95
2019-05-09T23:32:40.660Z,31.97
2019-05-09T23:34:44.523Z,28.55
2019-05-09T23:36:48.414Z,31.57
2019-05-09T23:39:08.815Z,29.48
2019-05-09T23:41:12.640Z,30.00
2019-05-09T23:43:16.534Z,28.27
2019-05-09T23:45:20.434Z,29.48
2019-05-09T23:47:24.302Z,37.42
2019-05-09T23:49:29.489Z,32.23
2019-05-09T23:51:46.183Z,29.80
2019-05-09T23:53:55.278Z,32.30
2019-05-09T23:56:17.344Z,28.50
2019-05-09T23:58:39.530Z,28.25
